createdAt,value
2018-11-05T00:01:47.813Z,33.77
2018-11-05T00:04:13.825Z,29.90
2018-11-05T00:06:39.831Z,24.17
2018-11-05T00:09:05.788Z,30.47
2018-11-05T00:11:32.527Z,26.77
2018-11-05T00:13:59.257Z,26.03
2018-11-05T00:16:25.211Z,23.80
2018-11-05T00:18:51.208Z,25.40
2018-11-05T00:21:17.927Z,30.80
2018-11-05T00:23:43.937Z,27.07
2018-11-05T00:26:09.910Z,29.77
2018-11-05T00:28:36.631Z,29.73
2018-11-05T00:31:03.350Z,23.27
2018-11-05T00:33:29.317Z,32.27
2018-11-05T00:35:56.119Z,25.00
2018-11-05T00:38:22.122Z,22.73
2018-11-05T00:40:48.086Z,23.03
2018-11-05T00:43:14.070Z,24.83
2018-11-05T00:45:40.138Z,20.60
2018-11-05T00:48:06.088Z,24.03
2018-11-05T00:50:32.073Z,23.07
2018-11-05T00:52:58.797Z,27.13
2018-11-05T00:55:24.795Z,23.33
2018-11-05T00:57:51.045Z,22.57
2018-11-05T01:00:17.110Z,24.30
2018-11-05T01:02:43.149Z,22.00
2018-11-05T01:05:09.135Z,25.07
2018-11-05T01:07:35.856Z,30.37
2018-11-05T01:10:01.838Z,22.77
2018-11-05T01:12:27.784Z,20.40
2018-11-05T01:14:53.779Z,21.23
2018-11-05T01:17:19.722Z,20.00
2018-11-05T01:19:45.691Z,23.80
2018-11-05T01:22:11.714Z,23.43
2018-11-05T01:24:37.686Z,23.03
2018-11-05T01:27:04.397Z,22.83
2018-11-05T01:29:31.093Z,23.13
2018-11-05T01:31:57.091Z,23.90
2018-11-05T01:34:23.061Z,20.53
2018-11-05T01:36:49.061Z,21.87
2018-11-05T01:39:15.020Z,18.73
2018-11-05T01:41:41.774Z,24.73
2018-11-05T01:44:07.765Z,25.57
2018-11-05T01:46:33.757Z,23.13
2018-11-05T01:48:59.748Z,22.93
2018-11-05T01:51:26.418Z,20.47
2018-11-05T01:53:52.423Z,27.90
2018-11-05T01:56:18.408Z,21.97
2018-11-05T01:58:45.149Z,21.53
2018-11-05T02:01:11.119Z,21.90
2018-11-05T02:03:37.095Z,22.50
2018-11-05T02:06:03.814Z,28.00
2018-11-05T02:08:29.782Z,24.83
2018-11-05T02:10:55.749Z,21.07
2018-11-05T02:13:21.760Z,22.53
2018-11-05T02:15:47.822Z,22.50
2018-11-05T02:18:13.744Z,20.50
2018-11-05T02:20:39.718Z,21.80
2018-11-05T02:23:05.671Z,19.93
2018-11-05T02:25:31.647Z,20.47
2018-11-05T02:27:57.659Z,25.10
2018-11-05T02:30:24.354Z,20.67
2018-11-05T02:32:50.356Z,24.43
2018-11-05T02:35:16.335Z,19.67
2018-11-05T02:37:43.691Z,23.50
2018-11-05T02:40:10.496Z,21.37
2018-11-05T02:42:36.468Z,23.40
2018-11-05T02:45:02.476Z,22.10
2018-11-05T02:47:29.184Z,19.13
2018-11-05T02:49:55.168Z,23.33
2018-11-05T02:52:21.159Z,20.33
2018-11-05T02:54:47.880Z,19.70
2018-11-05T02:57:13.813Z,19.83
2018-11-05T02:59:40.551Z,21.07
2018-11-05T03:02:06.507Z,21.30
2018-11-05T03:04:32.501Z,21.63
2018-11-05T03:06:59.211Z,22.97
2018-11-05T03:09:25.206Z,24.03
2018-11-05T03:11:51.185Z,19.53
2018-11-05T03:14:17.177Z,28.63
2018-11-05T03:16:43.137Z,23.60
2018-11-05T03:19:09.866Z,23.53
2018-11-05T03:21:35.822Z,23.27
2018-11-05T03:24:01.769Z,21.70
2018-11-05T03:26:27.765Z,26.37
2018-11-05T03:28:53.721Z,23.17
2018-11-05T03:31:19.726Z,26.97
2018-11-05T03:33:45.707Z,23.73
2018-11-05T03:36:11.749Z,27.77
2018-11-05T03:38:37.704Z,25.77
2018-11-05T03:41:03.694Z,28.33
2018-11-05T03:43:29.672Z,26.80
2018-11-05T03:45:55.675Z,26.27
2018-11-05T03:48:21.643Z,25.57
2018-11-05T03:50:48.353Z,24.07
2018-11-05T03:53:14.347Z,25.27
2018-11-05T03:55:40.324Z,25.83
2018-11-05T03:58:07.081Z,27.13
2018-11-05T04:00:33.777Z,26.03
2018-11-05T04:02:59.758Z,23.07
2018-11-05T04:05:25.762Z,25.90
2018-11-05T04:07:52.494Z,22.87
2018-11-05T04:10:18.467Z,27.40
2018-11-05T04:12:44.463Z,24.43
2018-11-05T04:15:10.517Z,23.50
2018-11-05T04:17:37.212Z,21.10
2018-11-05T04:20:03.155Z,21.43
2018-11-05T04:22:29.842Z,26.70
2018-11-05T04:24:56.612Z,28.43
2018-11-05T04:27:23.328Z,26.97
2018-11-05T04:29:50.087Z,23.23
2018-11-05T04:32:16.049Z,26.60
2018-11-05T04:34:42.091Z,26.90
2018-11-05T04:37:08.061Z,23.30
2018-11-05T04:39:34.756Z,20.03
2018-11-05T04:42:00.764Z,26.70
2018-11-05T04:44:26.739Z,25.93
2018-11-05T04:46:52.731Z,25.07
2018-11-05T04:49:18.690Z,25.40
2018-11-05T04:51:45.419Z,26.13
2018-11-05T04:54:11.371Z,23.20
2018-11-05T04:56:38.092Z,28.70
2018-11-05T04:59:04.063Z,25.90
2018-11-05T05:01:30.034Z,24.80
2018-11-05T05:03:56.764Z,24.73
2018-11-05T05:06:22.751Z,20.93
2018-11-05T05:08:48.706Z,25.20
2018-11-05T05:11:14.674Z,24.73
2018-11-05T05:13:40.666Z,25.13
2018-11-05T05:16:06.627Z,22.83
2018-11-05T05:18:32.628Z,27.47
2018-11-05T05:20:58.639Z,26.80
2018-11-05T05:23:25.400Z,25.17
2018-11-05T05:25:51.361Z,25.30
2018-11-05T05:28:17.357Z,26.83
2018-11-05T05:30:43.335Z,26.83
2018-11-05T05:33:09.364Z,29.83
2018-11-05T05:35:35.318Z,28.47
2018-11-05T05:38:01.279Z,28.83
2018-11-05T05:40:27.260Z,31.03
2018-11-05T05:42:53.243Z,36.10
2018-11-05T05:45:19.220Z,31.23
2018-11-05T05:47:45.188Z,31.20
2018-11-05T05:50:11.994Z,32.17
2018-11-05T05:52:37.935Z,30.80
2018-11-05T05:55:03.942Z,37.63
2018-11-05T05:57:29.920Z,37.63
2018-11-05T05:59:56.700Z,40.57
2018-11-05T06:02:22.651Z,34.27
2018-11-05T06:04:48.630Z,39.47
2018-11-05T06:07:14.612Z,34.77
2018-11-05T06:09:40.582Z,45.40
2018-11-05T06:12:06.568Z,36.47
2018-11-05T06:14:32.506Z,38.97
2018-11-05T06:16:59.227Z,39.70
2018-11-05T06:19:25.179Z,40.63
2018-11-05T06:21:51.991Z,45.57
2018-11-05T06:24:17.908Z,45.77
2018-11-05T06:26:43.867Z,42.07
2018-11-05T06:29:09.885Z,44.83
2018-11-05T06:31:36.603Z,47.57
2018-11-05T06:34:03.336Z,37.17
2018-11-05T06:36:29.300Z,43.10
2018-11-05T06:38:55.311Z,37.63
2018-11-05T06:41:21.473Z,41.13
2018-11-05T06:43:47.282Z,39.33
2018-11-05T06:46:13.256Z,42.30
2018-11-05T06:48:39.326Z,41.87
2018-11-05T06:51:05.981Z,40.27
2018-11-05T06:53:31.965Z,39.60
2018-11-05T06:55:57.961Z,38.63
2018-11-05T06:58:23.916Z,40.53
2018-11-05T07:00:49.911Z,35.13
2018-11-05T07:03:16.618Z,37.00
2018-11-05T07:05:42.669Z,33.83
2018-11-05T07:08:08.625Z,40.57
2018-11-05T07:10:35.339Z,37.67
2018-11-05T07:13:01.295Z,33.93
2018-11-05T07:15:27.274Z,35.27
2018-11-05T07:17:53.249Z,33.30
2018-11-05T07:20:19.976Z,37.43
2018-11-05T07:22:45.939Z,31.20
2018-11-05T07:25:11.937Z,34.00
2018-11-05T07:27:38.028Z,28.90
2018-11-05T07:30:04.703Z,36.73
2018-11-05T07:32:30.666Z,32.63
2018-11-05T07:34:56.643Z,35.13
2018-11-05T07:37:22.611Z,31.53
2018-11-05T07:39:49.352Z,35.23
2018-11-05T07:42:15.331Z,31.90
2018-11-05T07:44:41.305Z,32.43
2018-11-05T07:47:07.301Z,32.50
2018-11-05T07:49:33.262Z,32.03
2018-11-05T07:52:00.001Z,33.60
2018-11-05T07:54:26.722Z,26.67
2018-11-05T07:56:52.846Z,34.63
2018-11-05T07:59:19.471Z,33.73
2018-11-05T08:01:45.437Z,34.33
2018-11-05T08:04:12.160Z,31.17
2018-11-05T08:06:38.119Z,31.13
2018-11-05T08:09:04.115Z,29.13
2018-11-05T08:11:30.820Z,37.07
2018-11-05T08:13:56.823Z,36.20
2018-11-05T08:16:22.774Z,30.83
2018-11-05T08:18:48.771Z,39.13
2018-11-05T08:21:14.743Z,34.00
2018-11-05T08:23:41.481Z,34.13
2018-11-05T08:26:07.425Z,35.07
2018-11-05T08:28:34.181Z,37.67
2018-11-05T08:31:00.144Z,31.20
2018-11-05T08:33:26.105Z,36.00
2018-11-05T08:35:52.829Z,36.10
2018-11-05T08:38:19.542Z,36.10
2018-11-05T08:40:45.537Z,44.83
2018-11-05T08:43:11.495Z,41.77
2018-11-05T08:45:37.511Z,39.87
2018-11-05T08:48:03.482Z,41.30
2018-11-05T08:50:29.513Z,44.13
2018-11-05T08:52:55.474Z,37.73
2018-11-05T08:55:21.439Z,37.60
2018-11-05T08:57:48.218Z,40.10
2018-11-05T09:00:14.887Z,43.53
2018-11-05T09:02:40.865Z,38.23
2018-11-05T09:05:06.882Z,42.43
2018-11-05T09:07:32.826Z,42.13
2018-11-05T09:09:58.873Z,47.40
2018-11-05T09:12:25.564Z,45.83
2018-11-05T09:14:51.517Z,45.50
2018-11-05T09:17:17.484Z,41.83
2018-11-05T09:19:44.239Z,42.53
2018-11-05T09:22:10.215Z,41.63
2018-11-05T09:24:36.200Z,44.50
2018-11-05T09:27:02.169Z,44.87
2018-11-05T09:29:28.169Z,44.53
2018-11-05T09:31:54.862Z,48.07
2018-11-05T09:34:21.617Z,44.80
2018-11-05T09:36:47.589Z,44.07
2018-11-05T09:39:13.556Z,46.20
2018-11-05T09:41:39.573Z,43.40
2018-11-05T09:44:06.283Z,53.13
2018-11-05T09:46:32.275Z,45.10
2018-11-05T09:48:58.258Z,40.70
2018-11-05T09:51:25.007Z,46.57
2018-11-05T09:53:51.016Z,49.53
2018-11-05T09:56:17.027Z,50.37
2018-11-05T09:58:43.018Z,47.67
2018-11-05T10:01:08.995Z,44.43
2018-11-05T10:03:35.180Z,54.73
2018-11-05T10:06:00.966Z,42.00
2018-11-05T10:08:26.963Z,46.40
2018-11-05T10:10:53.017Z,40.50
2018-11-05T10:13:19.722Z,49.83
2018-11-05T10:15:46.436Z,43.57
2018-11-05T10:18:12.441Z,43.10
2018-11-05T10:20:38.398Z,42.70
2018-11-05T10:23:04.390Z,43.10
2018-11-05T10:25:30.361Z,42.57
2018-11-05T10:27:56.366Z,49.70
2018-11-05T10:30:23.104Z,44.93
2018-11-05T10:32:49.093Z,47.57
2018-11-05T10:35:15.063Z,42.43
2018-11-05T10:37:41.769Z,44.77
2018-11-05T10:40:07.820Z,41.37
2018-11-05T10:42:33.778Z,39.53
2018-11-05T10:44:59.780Z,47.87
2018-11-05T10:47:26.492Z,42.90
2018-11-05T10:49:52.475Z,37.70
2018-11-05T10:52:18.534Z,46.97
2018-11-05T10:54:44.479Z,44.33
2018-11-05T10:57:11.226Z,43.03
2018-11-05T10:59:37.919Z,45.27
2018-11-05T11:02:03.925Z,43.10
2018-11-05T11:04:29.975Z,45.47
2018-11-05T11:06:56.620Z,40.00
2018-11-05T11:09:22.588Z,37.20
2018-11-05T11:11:55.554Z,42.07
2018-11-05T11:14:22.264Z,39.17
2018-11-05T11:16:48.222Z,42.40
2018-11-05T11:19:14.949Z,42.90
2018-11-05T11:21:40.906Z,44.03
2018-11-05T11:24:06.892Z,43.83
2018-11-05T11:26:32.863Z,52.07
2018-11-05T11:28:58.974Z,51.20
2018-11-05T11:31:25.555Z,53.53
2018-11-05T11:33:51.545Z,50.67
2018-11-05T11:36:17.551Z,52.73
2018-11-05T11:38:43.539Z,53.93
2018-11-05T11:41:09.511Z,59.33
2018-11-05T11:43:35.494Z,56.10
2018-11-05T11:46:02.279Z,52.90
2018-11-05T11:48:28.206Z,60.53
2018-11-05T11:50:54.159Z,55.07
2018-11-05T11:53:20.235Z,48.10
2018-11-05T11:55:46.125Z,55.73
2018-11-05T11:58:12.892Z,49.03
2018-11-05T12:00:39.182Z,52.90
2018-11-05T12:03:05.130Z,51.60
2018-11-05T12:05:31.862Z,51.23
2018-11-05T12:07:58.569Z,58.97
2018-11-05T12:10:24.547Z,51.50
2018-11-05T12:12:51.233Z,53.67
2018-11-05T12:15:17.217Z,53.80
2018-11-05T12:17:43.185Z,52.33
2018-11-05T12:20:09.152Z,50.27
2018-11-05T12:22:35.127Z,51.27
2018-11-05T12:25:01.150Z,51.20
2018-11-05T12:27:27.093Z,52.17
2018-11-05T12:29:53.039Z,54.37
2018-11-05T12:32:19.751Z,51.93
2018-11-05T12:34:45.744Z,56.03
2018-11-05T12:37:11.721Z,55.13
2018-11-05T12:39:37.695Z,54.07
2018-11-05T12:42:03.668Z,50.63
2018-11-05T12:44:30.429Z,48.10
2018-11-05T12:46:57.251Z,47.73
2018-11-05T12:49:23.224Z,54.50
2018-11-05T12:51:49.186Z,45.03
2018-11-05T12:54:15.909Z,50.73
2018-11-05T12:56:41.867Z,53.33
2018-11-05T12:59:07.872Z,49.30
2018-11-05T13:01:34.573Z,44.37
2018-11-05T13:04:00.592Z,47.23
2018-11-05T13:06:26.895Z,48.23
2018-11-05T13:08:52.883Z,44.77
2018-11-05T13:11:19.599Z,45.53
2018-11-05T13:13:45.626Z,47.33
2018-11-05T13:16:12.350Z,42.47
2018-11-05T13:18:38.843Z,45.07
2018-11-05T13:21:05.529Z,47.00
2018-11-05T13:23:31.531Z,52.20
2018-11-05T13:25:57.497Z,43.27
2018-11-05T13:28:23.515Z,44.50
2018-11-05T13:30:49.483Z,50.60
2018-11-05T13:33:15.468Z,44.50
2018-11-05T13:35:41.481Z,50.87
2018-11-05T13:38:08.073Z,59.73
2018-11-05T13:40:33.417Z,46.03
2018-11-05T13:42:59.413Z,50.00
2018-11-05T13:45:25.570Z,55.17
2018-11-05T13:47:52.241Z,60.30
2018-11-05T13:50:17.640Z,50.20
2018-11-05T13:52:43.802Z,48.93
2018-11-05T13:55:09.443Z,55.27
2018-11-05T13:57:35.433Z,50.50
2018-11-05T14:00:01.408Z,56.17
2018-11-05T14:02:27.380Z,54.27
2018-11-05T14:04:53.345Z,48.93
2018-11-05T14:07:19.349Z,52.67
2018-11-05T14:09:45.289Z,47.73
2018-11-05T14:12:11.281Z,47.77
2018-11-05T14:14:37.219Z,51.07
2018-11-05T14:17:03.218Z,45.23
2018-11-05T14:19:29.222Z,55.03
2018-11-05T14:21:55.931Z,51.83
2018-11-05T14:24:21.911Z,57.77
2018-11-05T14:26:47.905Z,49.53
2018-11-05T14:29:15.235Z,53.83
2018-11-05T14:31:40.633Z,53.07
2018-11-05T14:34:06.606Z,57.47
2018-11-05T14:36:32.577Z,53.57
2018-11-05T14:38:58.594Z,55.83
2018-11-05T14:41:24.572Z,54.90
2018-11-05T14:43:51.335Z,43.03
2018-11-05T14:46:17.308Z,51.77
2018-11-05T14:48:43.289Z,48.00
2018-11-05T14:51:09.352Z,49.20
2018-11-05T14:53:35.279Z,44.47
2018-11-05T14:56:01.276Z,41.27
2018-11-05T14:58:27.227Z,41.60
2018-11-05T15:00:53.945Z,43.97
2018-11-05T15:03:19.914Z,46.07
2018-11-05T15:05:45.922Z,39.63
2018-11-05T15:08:11.870Z,36.67
2018-11-05T15:10:37.832Z,40.70
2018-11-05T15:13:03.892Z,36.97
2018-11-05T15:15:29.827Z,35.07
2018-11-05T15:17:55.814Z,37.97
2018-11-05T15:20:21.941Z,32.30
2018-11-05T15:22:47.765Z,35.20
2018-11-05T15:25:13.721Z,32.80
2018-11-05T15:27:39.725Z,30.70
2018-11-05T15:30:06.434Z,34.40
2018-11-05T15:32:32.372Z,36.83
2018-11-05T15:34:58.370Z,34.90
2018-11-05T15:37:24.331Z,39.50
2018-11-05T15:39:51.562Z,34.70
2018-11-05T15:42:17.518Z,36.87
2018-11-05T15:44:44.251Z,34.87
2018-11-05T15:47:10.958Z,39.63
2018-11-05T15:49:36.944Z,31.87
2018-11-05T15:52:03.344Z,37.80
2018-11-05T15:54:29.776Z,34.17
2018-11-05T15:56:55.659Z,31.93
2018-11-05T15:59:21.608Z,34.20
2018-11-05T16:01:48.361Z,30.27
2018-11-05T16:04:15.066Z,44.03
2018-11-05T16:06:41.053Z,36.07
2018-11-05T16:09:07.017Z,32.07
2018-11-05T16:11:33.010Z,43.20
2018-11-05T16:13:59.718Z,40.80
2018-11-05T16:16:26.422Z,33.70
2018-11-05T16:18:52.383Z,32.87
2018-11-05T16:21:18.385Z,34.13
2018-11-05T16:23:45.152Z,29.37
2018-11-05T16:26:11.937Z,37.07
2018-11-05T16:28:38.716Z,31.37
2018-11-05T16:31:05.421Z,32.33
2018-11-05T16:33:31.401Z,36.83
2018-11-05T16:35:58.112Z,38.83
2018-11-05T16:38:24.909Z,36.57
2018-11-05T16:40:50.823Z,35.00
2018-11-05T16:43:16.843Z,37.40
2018-11-05T16:45:42.901Z,29.97
2018-11-05T16:48:08.825Z,32.87
2018-11-05T16:50:34.830Z,31.00
2018-11-05T16:53:00.815Z,35.50
2018-11-05T16:55:26.795Z,31.27
2018-11-05T16:57:52.801Z,33.80
2018-11-05T17:00:18.757Z,27.63
2018-11-05T17:02:45.675Z,32.67
2018-11-05T17:05:11.484Z,31.53
2018-11-05T17:07:37.466Z,25.67
2018-11-05T17:10:03.423Z,30.97
2018-11-05T17:12:29.391Z,32.53
2018-11-05T17:14:56.107Z,25.77
2018-11-05T17:17:22.107Z,33.70
2018-11-05T17:19:48.087Z,28.60
2018-11-05T17:22:14.803Z,33.07
2018-11-05T17:24:40.758Z,35.63
2018-11-05T17:27:07.478Z,35.43
2018-11-05T17:29:33.437Z,29.10
2018-11-05T17:31:59.417Z,33.93
2018-11-05T17:34:26.142Z,35.90
2018-11-05T17:36:52.144Z,33.57
2018-11-05T17:39:18.140Z,30.10
2018-11-05T17:41:44.132Z,33.73
2018-11-05T17:44:10.110Z,30.43
2018-11-05T17:46:36.091Z,33.63
2018-11-05T17:49:02.821Z,34.50
2018-11-05T17:51:29.550Z,31.90
2018-11-05T17:53:55.534Z,31.87
2018-11-05T17:56:21.501Z,28.70
2018-11-05T17:58:47.484Z,34.87
2018-11-05T18:01:13.457Z,33.23
2018-11-05T18:03:40.197Z,28.23
2018-11-05T18:06:06.981Z,32.63
2018-11-05T18:08:33.832Z,25.20
2018-11-05T18:10:59.797Z,26.97
2018-11-05T18:13:25.816Z,30.20
2018-11-05T18:15:51.766Z,31.07
2018-11-05T18:18:18.486Z,30.50
2018-11-05T18:20:45.242Z,24.43
2018-11-05T18:23:11.943Z,26.30
2018-11-05T18:25:37.933Z,37.53
2018-11-05T18:28:03.882Z,33.60
2018-11-05T18:30:29.884Z,29.77
2018-11-05T18:32:55.846Z,30.47
2018-11-05T18:35:22.558Z,32.77
2018-11-05T18:37:48.563Z,29.47
2018-11-05T18:40:14.896Z,31.40
2018-11-05T18:42:40.929Z,32.50
2018-11-05T18:45:06.923Z,28.50
2018-11-05T18:47:32.893Z,40.47
2018-11-05T18:49:58.889Z,33.17
2018-11-05T18:52:24.901Z,35.40
2018-11-05T18:54:50.906Z,29.40
2018-11-05T18:57:16.885Z,36.33
2018-11-05T18:59:42.855Z,33.27
2018-11-05T19:02:09.206Z,36.13
2018-11-05T19:04:35.180Z,31.70
2018-11-05T19:07:01.928Z,33.60
2018-11-05T19:09:28.659Z,34.03
2018-11-05T19:11:54.651Z,38.73
2018-11-05T19:14:20.649Z,30.20
2018-11-05T19:16:46.664Z,33.63
2018-11-05T19:19:12.635Z,36.57
2018-11-05T19:21:38.620Z,37.13
2018-11-05T19:24:04.678Z,38.57
2018-11-05T19:26:30.590Z,32.07
2018-11-05T19:28:56.560Z,36.33
2018-11-05T19:31:23.292Z,36.57
2018-11-05T19:33:50.072Z,41.03
2018-11-05T19:36:16.103Z,40.77
2018-11-05T19:38:43.052Z,31.10
2018-11-05T19:41:09.010Z,37.77
2018-11-05T19:43:35.002Z,30.97
2018-11-05T19:46:00.964Z,32.53
2018-11-05T19:48:26.951Z,30.47
2018-11-05T19:50:52.941Z,35.37
2018-11-05T19:53:18.959Z,36.73
2018-11-05T19:55:45.679Z,32.47
2018-11-05T19:58:12.419Z,32.10
2018-11-05T20:00:39.141Z,37.93
2018-11-05T20:03:05.184Z,34.83
2018-11-05T20:05:31.223Z,34.37
2018-11-05T20:07:57.133Z,36.33
2018-11-05T20:10:23.852Z,30.80
2018-11-05T20:12:49.844Z,35.43
2018-11-05T20:15:15.894Z,34.83
2018-11-05T20:17:42.583Z,35.50
2018-11-05T20:20:08.549Z,34.57
2018-11-05T20:22:34.553Z,27.47
2018-11-05T20:25:00.513Z,35.60
2018-11-05T20:27:26.461Z,37.87
2018-11-05T20:29:53.216Z,32.10
2018-11-05T20:32:19.476Z,40.20
2018-11-05T20:34:45.198Z,34.47
2018-11-05T20:37:11.156Z,33.07
2018-11-05T20:39:37.937Z,40.50
2018-11-05T20:42:03.901Z,32.87
2018-11-05T20:44:29.916Z,33.63
2018-11-05T20:46:55.928Z,37.20
2018-11-05T20:49:21.922Z,30.77
2018-11-05T20:51:47.885Z,32.90
2018-11-05T20:54:13.993Z,37.07
2018-11-05T20:56:39.842Z,37.83
2018-11-05T20:59:06.327Z,39.20
2018-11-05T21:01:32.294Z,35.33
2018-11-05T21:03:58.271Z,31.00
2018-11-05T21:06:24.269Z,37.70
2018-11-05T21:08:50.972Z,32.00
2018-11-05T21:11:16.975Z,38.77
2018-11-05T21:13:42.972Z,33.97
2018-11-05T21:16:08.981Z,35.10
2018-11-05T21:18:35.699Z,38.43
2018-11-05T21:21:01.710Z,38.10
2018-11-05T21:23:27.688Z,31.53
2018-11-05T21:25:53.677Z,33.10
2018-11-05T21:28:20.390Z,35.17
2018-11-05T21:30:46.376Z,33.80
2018-11-05T21:33:12.479Z,37.17
2018-11-05T21:35:38.493Z,34.53
2018-11-05T21:38:04.518Z,32.57
2018-11-05T21:40:31.279Z,36.33
2018-11-05T21:42:57.993Z,38.53
2018-11-05T21:45:24.752Z,36.47
2018-11-05T21:47:51.473Z,36.57
2018-11-05T21:50:18.188Z,36.10
2018-11-05T21:52:44.185Z,41.60
2018-11-05T21:55:10.172Z,35.07
2018-11-05T21:57:36.208Z,34.33
2018-11-05T22:00:02.186Z,34.93
2018-11-05T22:02:28.191Z,40.40
2018-11-05T22:04:54.172Z,42.00
2018-11-05T22:07:20.167Z,37.60
2018-11-05T22:09:46.165Z,41.60
2018-11-05T22:12:12.139Z,38.47
2018-11-05T22:14:38.897Z,40.07
2018-11-05T22:17:04.881Z,39.80
2018-11-05T22:19:30.847Z,38.47
2018-11-05T22:21:56.823Z,36.60
2018-11-05T22:24:22.789Z,40.53
2018-11-05T22:26:48.775Z,35.33
2018-11-05T22:29:15.524Z,36.57
2018-11-05T22:31:42.267Z,37.07
2018-11-05T22:34:08.991Z,33.30
2018-11-05T22:36:35.000Z,34.00
2018-11-05T22:39:00.976Z,36.43
2018-11-05T22:41:26.961Z,36.90
2018-11-05T22:43:52.924Z,36.67
2018-11-05T22:46:18.897Z,45.53
2018-11-05T22:48:44.890Z,35.77
2018-11-05T22:51:10.898Z,37.87
2018-11-05T22:53:36.865Z,37.87
2018-11-05T22:56:02.887Z,35.57
2018-11-05T22:58:28.852Z,35.03
2018-11-05T23:00:54.832Z,32.43
2018-11-05T23:03:20.827Z,29.57
2018-11-05T23:05:46.824Z,38.20
2018-11-05T23:08:12.847Z,41.87
2018-11-05T23:10:38.825Z,30.80
2018-11-05T23:13:04.897Z,30.77
2018-11-05T23:15:30.887Z,36.00
2018-11-05T23:17:57.628Z,33.57
2018-11-05T23:20:24.392Z,39.97
2018-11-05T23:22:51.126Z,37.23
2018-11-05T23:25:17.868Z,34.13
2018-11-05T23:27:44.579Z,31.23
2018-11-05T23:30:10.575Z,36.30
2018-11-05T23:32:37.279Z,35.77
2018-11-05T23:35:03.310Z,34.83
2018-11-05T23:37:29.997Z,36.40
2018-11-05T23:39:55.967Z,27.30
2018-11-05T23:42:21.962Z,38.60
2018-11-05T23:44:47.918Z,35.90
2018-11-05T23:47:13.909Z,39.07
2018-11-05T23:49:40.623Z,35.80
2018-11-05T23:52:06.694Z,33.90
2018-11-05T23:54:32.655Z,35.83
2018-11-05T23:56:58.644Z,36.87
2018-11-05T23:59:24.642Z,33.00
